Bei Facebook empfehlenBei Twitter postenGoogle plusPinterest

Das Wetter im Erzgebirge am 22.06.2015

Wetter und Klima am 22.06.2015 Holzhau im Erzgebirge (630m ü.NN)
Letzte gemessene Temperatur und Uhrzeit der Messung23:45:00 Uhr8.20 °C
Temperatur (Maximum / Höchstwert) und Uhrzeit der Messung12:00:00 Uhr18.30 °C
Temperatur (Minimum / Tiefstwert) und Uhrzeit der Messung22:45:007.80 °C
Errechneter Absolutwert der Temperaturschwankungen zwischen Tmin und Tmax des Tages10.50 K
Errechnete Tagesmitteltemperatur11.76042 °C
Gesamt - Niederschlag des Tages (in flüssiger Form)5.18 Liter / m²
Luftdruck (Maximum / Höchstwert) und Zeitpunkt der Messung00:30:00 Uhr1012.70 hPa
Luftdruck (Minimum / Tiefstwert) und Zeitpunkt der Messung23:45:00 Uhr1004.70 hPa
Errechneter Absolutwert der Luftdruckschwankungen des Tages8.00 hPa
Höchste gemessene Windgeschwindigkeit und Uhrzeit der Messung23:30:00 Uhr15.12 km/h
Errechnete Windhäufigkeit in Relation zu den Messwerten des Tages16.66667 %
Niedrigste Windkühle (Windchill) und Zeitpunkt der Messung23:30:00 Uhr5.60 °C
Taupunkt (Maximum / Höchstwert) und Uhrzeit der Messung07:30:00 Uhr12.50 °C
Taupunkt (Minimum / Tiefstwert) und Uhrzeit der Messung22:30:006.00 °C
Anzahl der automatisch eingelesenen Messwerte 96

Detaillierte Wetter- und Klima- Messwerte für den 22.06.2015 in Holzhau im Erzgebirge (630m ü.NN)
ZeitTemperaturLuftdruckRel. LuftfeuchteWindWindrichtungWindchillTaupunktNiederschlag l/m²
23:45:008.20 °C1004.70 hPa89.00 %6.50 °C5.18
23:30:008.10 °C1004.80 hPa89.00 %15.12 km/hSSW5.60 °C6.40 °C5.18
23:15:008.10 °C1005.10 hPa89.00 %8.28 km/hSSW6.70 °C6.40 °C5.18
23:00:007.90 °C1005.30 hPa89.00 %6.20 °C5.18
22:45:007.80 °C1005.50 hPa89.00 %6.10 °C5.18
22:30:007.90 °C1005.60 hPa88.00 %6.00 °C5.18
22:15:008.10 °C1005.70 hPa88.00 %2.52 km/hSW8.10 °C6.20 °C5.18
22:00:008.30 °C1005.70 hPa89.00 %6.60 °C5.18
21:45:008.80 °C1005.90 hPa88.00 %6.90 °C5.18
21:30:009.20 °C1006.20 hPa88.00 %7.30 °C5.18
21:15:009.60 °C1006.30 hPa88.00 %7.70 °C5.18
21:00:009.90 °C1006.50 hPa88.00 %6.12 km/hSSW9.30 °C8.00 °C5.18
20:45:0010.20 °C1006.20 hPa88.00 %8.30 °C5.18
20:30:0010.40 °C1006.30 hPa88.00 %8.50 °C5.18
20:15:0010.30 °C1006.70 hPa88.00 %8.40 °C5.18
20:00:0010.30 °C1006.70 hPa88.00 %8.40 °C5.18
19:45:0010.40 °C1006.90 hPa88.00 %8.50 °C5.18
19:30:0010.40 °C1006.80 hPa88.00 %8.50 °C5.18
19:15:0010.50 °C1007.00 hPa88.00 %5.76 km/hW10.10 °C8.60 °C5.18
19:00:0010.90 °C1007.10 hPa88.00 %9.00 °C5.18
18:45:0010.60 °C1007.00 hPa89.00 %8.90 °C5.18
18:30:0010.50 °C1007.40 hPa88.00 %8.60 °C5.18
18:15:0010.50 °C1007.30 hPa88.00 %8.60 °C5.18
18:00:0010.40 °C1007.50 hPa88.00 %5.04 km/hSSW10.20 °C8.50 °C5.18
17:45:0010.30 °C1007.60 hPa88.00 %8.40 °C5.18
17:30:0010.60 °C1007.70 hPa87.00 %8.50 °C4.66
17:15:0011.10 °C1007.70 hPa85.00 %8.70 °C4.66
17:00:0011.80 °C1007.60 hPa83.00 %9.00 °C4.66
16:45:0012.60 °C1007.60 hPa84.00 %10.00 °C4.66
16:30:0012.30 °C1007.60 hPa87.00 %10.20 °C4.66
16:15:0011.50 °C1007.90 hPa89.00 %5.76 km/hWSW11.30 °C9.80 °C4.66
16:00:0011.00 °C1008.20 hPa89.00 %9.30 °C4.66
15:45:0010.70 °C1008.30 hPa88.00 %8.80 °C4.66
15:30:0010.90 °C1008.30 hPa87.00 %8.80 °C3.62
15:15:0011.00 °C1008.40 hPa86.00 %8.80 °C3.10
15:00:0011.00 °C1008.70 hPa84.00 %8.40 °C2.59
14:45:0011.60 °C1008.80 hPa82.00 %8.60 °C2.07
14:30:0013.20 °C1008.80 hPa77.00 %4.32 km/hWNW13.20 °C9.30 °C1.03
14:15:0015.30 °C1008.60 hPa73.00 %10.50 °C0.51
14:00:0014.60 °C1008.70 hPa75.00 %10.20 °C0.51
13:45:0013.90 °C1008.90 hPa73.00 %9.10 °C0.51
13:30:0015.30 °C1009.00 hPa71.00 %6.48 km/hSW15.50 °C10.10 °C0.51
13:15:0014.90 °C1008.60 hPa75.00 %3.24 km/hSW14.90 °C10.50 °C0.51
13:00:0014.10 °C1008.90 hPa75.00 %9.70 °C0.51
12:45:0015.10 °C1009.30 hPa71.00 %9.90 °C0.51
12:30:0016.10 °C1009.00 hPa63.00 %3.96 km/hSSW16.10 °C9.10 °C0.51
12:15:0018.10 °C1009.20 hPa58.00 %9.70 °C0.51
12:00:0018.30 °C1009.30 hPa60.00 %10.40 °C0.51
11:45:0017.30 °C1009.70 hPa63.00 %10.20 °C0.51
11:30:0016.90 °C1010.00 hPa60.00 %9.00 km/hWNW17.00 °C9.10 °C0.51
11:15:0017.30 °C1009.80 hPa59.00 %11.52 km/hNW17.20 °C9.20 °C0.51
11:00:0017.40 °C1009.90 hPa60.00 %4.68 km/hWNW17.40 °C9.60 °C0.51
10:45:0017.60 °C1010.10 hPa60.00 %9.80 °C0.51
10:30:0017.10 °C1010.10 hPa63.00 %10.00 °C0.51
10:15:0017.00 °C1010.20 hPa65.00 %10.40 °C0.51
10:00:0016.80 °C1010.10 hPa71.00 %14.04 km/hWSW16.40 °C11.50 °C0.51
09:45:0016.10 °C1010.20 hPa73.00 %11.30 °C0.51
09:30:0016.40 °C1010.40 hPa71.00 %11.10 °C0.51
09:15:0016.50 °C1010.50 hPa73.00 %5.04 km/hNW17.10 °C11.60 °C0.51
09:00:0015.90 °C1010.10 hPa78.00 %12.10 °C0.51
08:45:0015.20 °C1010.50 hPa79.00 %11.60 °C0.51
08:30:0014.80 °C1010.40 hPa81.00 %11.60 °C0.51
08:15:0013.90 °C1010.60 hPa80.00 %10.50 °C0.51
08:00:0015.10 °C1010.40 hPa79.00 %11.50 °C0.51
07:45:0015.10 °C1010.50 hPa82.00 %12.10 °C0.51
07:30:0014.50 °C1010.50 hPa88.00 %12.50 °C0.51
07:15:0011.60 °C1010.50 hPa90.00 %10.00 °C0.51
07:00:0011.40 °C1010.60 hPa91.00 %10.00 °C0.51
06:45:0011.30 °C1010.60 hPa91.00 %9.90 °C0.51
06:30:0011.00 °C1010.60 hPa91.00 %9.60 °C0.51
06:15:0010.90 °C1010.60 hPa91.00 %9.50 °C0.51
06:00:0010.40 °C1010.70 hPa92.00 %9.20 °C0.51
05:45:009.80 °C1010.60 hPa92.00 %8.60 °C0.51
05:30:009.40 °C1010.40 hPa91.00 %8.00 °C0.51
05:15:009.10 °C1010.60 hPa91.00 %7.70 °C0.51
05:00:009.10 °C1010.60 hPa91.00 %7.70 °C0.51
04:45:009.50 °C1010.60 hPa91.00 %8.10 °C0.51
04:30:009.80 °C1010.60 hPa91.00 %8.40 °C0.51
04:15:0010.10 °C1010.60 hPa91.00 %8.70 °C0.51
04:00:0010.20 °C1010.90 hPa91.00 %8.80 °C0.51
03:45:0010.10 °C1010.80 hPa91.00 %8.70 °C0.51
03:30:009.90 °C1010.80 hPa90.00 %8.30 °C0.51
03:15:009.80 °C1010.90 hPa90.00 %8.20 °C0.51
03:00:009.80 °C1010.90 hPa90.00 %8.20 °C 
02:45:009.80 °C1011.00 hPa90.00 %8.20 °C 
02:30:009.60 °C1011.30 hPa90.00 %8.00 °C 
02:15:009.60 °C1011.50 hPa90.00 %8.00 °C 
02:00:009.50 °C1011.60 hPa90.00 %7.90 °C 
01:45:009.50 °C1011.50 hPa90.00 %7.90 °C 
01:30:009.50 °C1011.80 hPa90.00 %7.90 °C 
01:15:009.30 °C1012.00 hPa90.00 %7.70 °C 
01:00:009.20 °C1012.10 hPa89.00 %7.50 °C 
00:45:009.10 °C1012.30 hPa89.00 %7.40 °C 
00:30:009.10 °C1012.70 hPa88.00 %7.20 °C 
00:15:009.00 °C1012.70 hPa87.00 %7.00 °C 
00:00:009.10 °C1012.60 hPa87.00 %7.10 °C 

Permanenter Link zu dieser Seite: Wetter im Erzgebirge am 22.06.2015
Performance-Info: Die Erstellung der Seite / Statistik(en) / Tabelle(n) erforderte 5 Datenbankserver-Abfrage(n) und dauerte 123 Millisekunden. (Dieser Messwert ist von der Gesamt-Auslastung des Servers abhängig.)
Erzgebirge - Wetter | Erzgebirge - Wetter (Mobilgeräte) | Komplette Klimadatenbank